sensor_id;sensor_type;location;lat;lon;timestamp;temperature;humidity
9699;DHT22;10089;47.876;8.346;2023-06-10T00:00:13;15.40;1.00
9699;DHT22;10089;47.876;8.346;2023-06-10T00:02:40;15.40;1.00
9699;DHT22;10089;47.876;8.346;2023-06-10T00:05:06;15.40;1.00
9699;DHT22;10089;47.876;8.346;2023-06-10T00:07:34;15.40;1.00
9699;DHT22;10089;47.876;8.346;2023-06-10T00:10:04;15.30;1.00
9699;DHT22;10089;47.876;8.346;2023-06-10T00:12:31;15.20;1.00
9699;DHT22;10089;47.876;8.346;2023-06-10T00:15:03;15.20;99.90
9699;DHT22;10089;47.876;8.346;2023-06-10T00:17:28;15.20;1.00
9699;DHT22;10089;47.876;8.346;2023-06-10T00:19:54;15.10;99.90
9699;DHT22;10089;47.876;8.346;2023-06-10T00:22:20;15.20;1.00
9699;DHT22;10089;47.876;8.346;2023-06-10T00:24:47;15.10;99.90
9699;DHT22;10089;47.876;8.346;2023-06-10T00:27:13;15.10;1.00
9699;DHT22;10089;47.876;8.346;2023-06-10T00:29:39;14.90;99.90
9699;DHT22;10089;47.876;8.346;2023-06-10T00:32:05;14.90;99.90
9699;DHT22;10089;47.876;8.346;2023-06-10T00:34:31;14.70;1.00
9699;DHT22;10089;47.876;8.346;2023-06-10T00:36:57;14.80;1.00
9699;DHT22;10089;47.876;8.346;2023-06-10T00:39:23;14.70;99.90
9699;DHT22;10089;47.876;8.346;2023-06-10T00:41:48;14.70;1.00
9699;DHT22;10089;47.876;8.346;2023-06-10T00:44:15;14.60;1.00
9699;DHT22;10089;47.876;8.346;2023-06-10T00:46:41;14.70;1.00
9699;DHT22;10089;47.876;8.346;2023-06-10T00:49:07;14.70;99.90
9699;DHT22;10089;47.876;8.346;2023-06-10T00:51:33;14.60;1.00
9699;DHT22;10089;47.876;8.346;2023-06-10T00:53:59;14.60;1.00
9699;DHT22;10089;47.876;8.346;2023-06-10T00:56:25;14.50;1.00
9699;DHT22;10089;47.876;8.346;2023-06-10T00:58:51;14.30;99.90
9699;DHT22;10089;47.876;8.346;2023-06-10T01:01:17;14.20;1.00
9699;DHT22;10089;47.876;8.346;2023-06-10T01:03:43;14.20;1.00
9699;DHT22;10089;47.876;8.346;2023-06-10T01:08:56;14.10;1.00
9699;DHT22;10089;47.876;8.346;2023-06-10T01:11:29;14.10;99.90
9699;DHT22;10089;47.876;8.346;2023-06-10T01:14:00;14.20;1.00
9699;DHT22;10089;47.876;8.346;2023-06-10T01:16:26;14.10;1.00
9699;DHT22;10089;47.876;8.346;2023-06-10T01:18:53;14.20;99.90
9699;DHT22;10089;47.876;8.346;2023-06-10T01:21:23;14.10;1.00
9699;DHT22;10089;47.876;8.346;2023-06-10T01:23:50;14.00;75.70
9699;DHT22;10089;47.876;8.346;2023-06-10T01:26:17;13.90;1.00
9699;DHT22;10089;47.876;8.346;2023-06-10T01:28:51;13.80;1.00
9699;DHT22;10089;47.876;8.346;2023-06-10T01:33:48;13.80;1.00
9699;DHT22;10089;47.876;8.346;2023-06-10T01:36:17;13.80;1.00
9699;DHT22;10089;47.876;8.346;2023-06-10T01:38:44;13.70;1.00
9699;DHT22;10089;47.876;8.346;2023-06-10T01:41:12;13.70;1.00
9699;DHT22;10089;47.876;8.346;2023-06-10T01:43:38;13.70;1.00
9699;DHT22;10089;47.876;8.346;2023-06-10T01:46:04;13.80;99.90
9699;DHT22;10089;47.876;8.346;2023-06-10T01:48:30;13.80;17.10
9699;DHT22;10089;47.876;8.346;2023-06-10T01:50:55;13.60;1.00
9699;DHT22;10089;47.876;8.346;2023-06-10T01:53:22;13.60;1.00
9699;DHT22;10089;47.876;8.346;2023-06-10T01:55:48;13.60;99.90
9699;DHT22;10089;47.876;8.346;2023-06-10T01:58:13;13.50;99.90
9699;DHT22;10089;47.876;8.346;2023-06-10T02:00:39;13.50;1.00
9699;DHT22;10089;47.876;8.346;2023-06-10T02:03:04;13.60;99.90
9699;DHT22;10089;47.876;8.346;2023-06-10T02:05:30;13.50;1.00
9699;DHT22;10089;47.876;8.346;2023-06-10T02:07:56;13.50;1.00
9699;DHT22;10089;47.876;8.346;2023-06-10T02:10:21;13.50;1.00
9699;DHT22;10089;47.876;8.346;2023-06-10T02:12:47;13.50;1.00
9699;DHT22;10089;47.876;8.346;2023-06-10T02:15:13;13.40;1.00
9699;DHT22;10089;47.876;8.346;2023-06-10T02:17:38;13.50;99.90
9699;DHT22;10089;47.876;8.346;2023-06-10T02:20:05;13.50;1.00
9699;DHT22;10089;47.876;8.346;2023-06-10T02:22:33;13.40;1.00
9699;DHT22;10089;47.876;8.346;2023-06-10T02:24:59;13.30;99.90
9699;DHT22;10089;47.876;8.346;2023-06-10T02:27:24;13.40;9.30
9699;DHT22;10089;47.876;8.346;2023-06-10T02:29:50;13.30;99.90
9699;DHT22;10089;47.876;8.346;2023-06-10T02:32:16;13.30;1.00
9699;DHT22;10089;47.876;8.346;2023-06-10T02:34:42;13.40;1.00
9699;DHT22;10089;47.876;8.346;2023-06-10T02:37:08;13.30;1.00
9699;DHT22;10089;47.876;8.346;2023-06-10T02:39:34;13.30;99.90
9699;DHT22;10089;47.876;8.346;2023-06-10T02:42:00;13.30;1.00
9699;DHT22;10089;47.876;8.346;2023-06-10T02:44:25;13.30;1.00
9699;DHT22;10089;47.876;8.346;2023-06-10T02:46:51;13.20;99.90
9699;DHT22;10089;47.876;8.346;2023-06-10T02:49:17;13.30;64.80
9699;DHT22;10089;47.876;8.346;2023-06-10T02:51:42;13.30;1.00
9699;DHT22;10089;47.876;8.346;2023-06-10T02:54:08;13.20;99.90
9699;DHT22;10089;47.876;8.346;2023-06-10T02:56:33;13.10;99.90
9699;DHT22;10089;47.876;8.346;2023-06-10T02:58:59;13.10;1.00
9699;DHT22;10089;47.876;8.346;2023-06-10T03:01:26;13.00;1.00
9699;DHT22;10089;47.876;8.346;2023-06-10T03:03:51;13.10;80.30
9699;DHT22;10089;47.876;8.346;2023-06-10T03:06:18;13.00;22.90
9699;DHT22;10089;47.876;8.346;2023-06-10T03:08:44;13.00;1.00
9699;DHT22;10089;47.876;8.346;2023-06-10T03:11:11;13.00;99.90
9699;DHT22;10089;47.876;8.346;2023-06-10T03:13:38;12.90;99.90
9699;DHT22;10089;47.876;8.346;2023-06-10T03:16:03;12.90;99.90
9699;DHT22;10089;47.876;8.346;2023-06-10T03:18:30;12.90;99.90
9699;DHT22;10089;47.876;8.346;2023-06-10T03:20:55;12.90;99.90
9699;DHT22;10089;47.876;8.346;2023-06-10T03:23:22;12.90;99.90
9699;DHT22;10089;47.876;8.346;2023-06-10T03:25:48;12.90;99.90
9699;DHT22;10089;47.876;8.346;2023-06-10T03:28:14;13.00;99.90
9699;DHT22;10089;47.876;8.346;2023-06-10T03:30:39;13.00;99.90
9699;DHT22;10089;47.876;8.346;2023-06-10T03:33:05;12.90;1.00
9699;DHT22;10089;47.876;8.346;2023-06-10T03:35:31;12.90;1.00
9699;DHT22;10089;47.876;8.346;2023-06-10T03:37:58;12.90;1.00
9699;DHT22;10089;47.876;8.346;2023-06-10T03:40:23;12.90;1.00
9699;DHT22;10089;47.876;8.346;2023-06-10T03:42:49;12.90;1.00
9699;DHT22;10089;47.876;8.346;2023-06-10T03:45:15;12.90;1.00
9699;DHT22;10089;47.876;8.346;2023-06-10T03:47:40;12.80;1.00
9699;DHT22;10089;47.876;8.346;2023-06-10T03:50:07;12.90;1.00
9699;DHT22;10089;47.876;8.346;2023-06-10T03:52:37;12.90;1.00
9699;DHT22;10089;47.876;8.346;2023-06-10T03:55:03;12.90;1.00
9699;DHT22;10089;47.876;8.346;2023-06-10T03:57:29;13.00;1.00
9699;DHT22;10089;47.876;8.346;2023-06-10T03:59:54;13.10;1.00
9699;DHT22;10089;47.876;8.346;2023-06-10T04:02:21;13.10;1.00
9699;DHT22;10089;47.876;8.346;2023-06-10T04:04:48;13.10;1.00
9699;DHT22;10089;47.876;8.346;2023-06-10T04:07:14;13.10;1.00
9699;DHT22;10089;47.876;8.346;2023-06-10T04:09:40;13.10;1.00
9699;DHT22;10089;47.876;8.346;2023-06-10T04:12:06;13.10;1.00
9699;DHT22;10089;47.876;8.346;2023-06-10T04:14:34;13.20;1.00
9699;DHT22;10089;47.876;8.346;2023-06-10T04:17:01;13.20;1.00
9699;DHT22;10089;47.876;8.346;2023-06-10T04:19:27;13.20;1.00
9699;DHT22;10089;47.876;8.346;2023-06-10T04:21:53;13.10;1.00
9699;DHT22;10089;47.876;8.346;2023-06-10T04:24:19;13.30;1.00
9699;DHT22;10089;47.876;8.346;2023-06-10T04:26:45;13.40;1.00
9699;DHT22;10089;47.876;8.346;2023-06-10T04:29:10;13.30;1.00
9699;DHT22;10089;47.876;8.346;2023-06-10T04:31:36;13.30;1.00
9699;DHT22;10089;47.876;8.346;2023-06-10T04:34:01;13.40;1.00
9699;DHT22;10089;47.876;8.346;2023-06-10T04:36:27;13.40;1.00
9699;DHT22;10089;47.876;8.346;2023-06-10T04:38:54;13.50;1.00
9699;DHT22;10089;47.876;8.346;2023-06-10T04:41:20;13.60;1.00
9699;DHT22;10089;47.876;8.346;2023-06-10T04:43:45;13.70;1.00
9699;DHT22;10089;47.876;8.346;2023-06-10T04:46:11;13.80;1.00
9699;DHT22;10089;47.876;8.346;2023-06-10T04:48:38;13.80;1.00
9699;DHT22;10089;47.876;8.346;2023-06-10T04:51:04;14.00;1.00
9699;DHT22;10089;47.876;8.346;2023-06-10T04:53:30;14.10;1.00
9699;DHT22;10089;47.876;8.346;2023-06-10T04:55:57;14.30;1.00
9699;DHT22;10089;47.876;8.346;2023-06-10T04:58:23;14.60;1.00
9699;DHT22;10089;47.876;8.346;2023-06-10T05:00:49;15.00;1.00
9699;DHT22;10089;47.876;8.346;2023-06-10T05:03:14;15.50;99.90
9699;DHT22;10089;47.876;8.346;2023-06-10T05:05:40;15.90;1.00
9699;DHT22;10089;47.876;8.346;2023-06-10T05:08:06;16.30;99.90
9699;DHT22;10089;47.876;8.346;2023-06-10T05:10:31;16.70;1.00
9699;DHT22;10089;47.876;8.346;2023-06-10T05:12:58;17.30;99.90
9699;DHT22;10089;47.876;8.346;2023-06-10T05:15:24;17.70;99.90
9699;DHT22;10089;47.876;8.346;2023-06-10T05:17:49;18.20;1.00
9699;DHT22;10089;47.876;8.346;2023-06-10T05:20:15;18.40;99.90
9699;DHT22;10089;47.876;8.346;2023-06-10T05:22:41;18.60;99.90
9699;DHT22;10089;47.876;8.346;2023-06-10T05:25:07;19.00;80.50
9699;DHT22;10089;47.876;8.346;2023-06-10T05:27:33;19.30;1.00
9699;DHT22;10089;47.876;8.346;2023-06-10T05:29:58;19.70;1.00
9699;DHT22;10089;47.876;8.346;2023-06-10T05:32:24;19.70;1.00
9699;DHT22;10089;47.876;8.346;2023-06-10T05:34:50;20.00;1.00
9699;DHT22;10089;47.876;8.346;2023-06-10T05:37:16;20.20;99.90
9699;DHT22;10089;47.876;8.346;2023-06-10T05:39:41;20.10;99.90
9699;DHT22;10089;47.876;8.346;2023-06-10T05:42:07;20.10;99.90
9699;DHT22;10089;47.876;8.346;2023-06-10T05:44:33;19.90;99.90
9699;DHT22;10089;47.876;8.346;2023-06-10T05:46:59;19.70;99.90
9699;DHT22;10089;47.876;8.346;2023-06-10T05:49:24;19.50;99.90
9699;DHT22;10089;47.876;8.346;2023-06-10T05:51:50;19.80;99.90
9699;DHT22;10089;47.876;8.346;2023-06-10T05:54:18;20.20;99.90
9699;DHT22;10089;47.876;8.346;2023-06-10T05:56:43;20.20;99.90
9699;DHT22;10089;47.876;8.346;2023-06-10T05:59:09;20.30;99.90
9699;DHT22;10089;47.876;8.346;2023-06-10T06:01:35;20.10;99.90
9699;DHT22;10089;47.876;8.346;2023-06-10T06:04:01;20.90;99.90
9699;DHT22;10089;47.876;8.346;2023-06-10T06:06:26;21.00;99.90
9699;DHT22;10089;47.876;8.346;2023-06-10T06:08:52;21.10;12.40
9699;DHT22;10089;47.876;8.346;2023-06-10T06:11:17;21.20;1.00
9699;DHT22;10089;47.876;8.346;2023-06-10T06:13:43;21.00;1.00
9699;DHT22;10089;47.876;8.346;2023-06-10T06:16:09;21.10;1.00
9699;DHT22;10089;47.876;8.346;2023-06-10T06:18:34;21.20;1.00
9699;DHT22;10089;47.876;8.346;2023-06-10T06:21:00;21.10;1.00
9699;DHT22;10089;47.876;8.346;2023-06-10T06:23:25;21.30;1.00
9699;DHT22;10089;47.876;8.346;2023-06-10T06:25:51;21.30;1.00
9699;DHT22;10089;47.876;8.346;2023-06-10T06:28:17;21.80;1.00
9699;DHT22;10089;47.876;8.346;2023-06-10T06:30:44;22.10;1.00
9699;DHT22;10089;47.876;8.346;2023-06-10T06:33:10;21.90;1.00
9699;DHT22;10089;47.876;8.346;2023-06-10T06:35:35;21.80;1.00
9699;DHT22;10089;47.876;8.346;2023-06-10T06:38:03;21.80;1.00
9699;DHT22;10089;47.876;8.346;2023-06-10T06:40:29;22.00;1.00
9699;DHT22;10089;47.876;8.346;2023-06-10T06:42:55;22.60;1.00
9699;DHT22;10089;47.876;8.346;2023-06-10T06:45:20;22.50;1.00
9699;DHT22;10089;47.876;8.346;2023-06-10T06:47:46;22.80;1.00
9699;DHT22;10089;47.876;8.346;2023-06-10T06:50:12;22.00;1.00
9699;DHT22;10089;47.876;8.346;2023-06-10T06:52:37;22.00;1.00
9699;DHT22;10089;47.876;8.346;2023-06-10T06:55:03;21.50;1.00
9699;DHT22;10089;47.876;8.346;2023-06-10T06:57:29;21.90;1.00
9699;DHT22;10089;47.876;8.346;2023-06-10T06:59:54;22.30;1.00
9699;DHT22;10089;47.876;8.346;2023-06-10T07:02:20;22.20;1.00
9699;DHT22;10089;47.876;8.346;2023-06-10T07:04:45;22.60;1.00
9699;DHT22;10089;47.876;8.346;2023-06-10T07:07:14;22.60;1.00
9699;DHT22;10089;47.876;8.346;2023-06-10T07:09:39;22.80;1.00
9699;DHT22;10089;47.876;8.346;2023-06-10T07:12:05;22.30;1.00
9699;DHT22;10089;47.876;8.346;2023-06-10T07:14:31;22.10;1.00
9699;DHT22;10089;47.876;8.346;2023-06-10T07:16:57;22.60;1.00
9699;DHT22;10089;47.876;8.346;2023-06-10T07:19:53;23.00;1.00
9699;DHT22;10089;47.876;8.346;2023-06-10T07:22:22;23.00;1.00
9699;DHT22;10089;47.876;8.346;2023-06-10T07:24:48;22.60;1.00
9699;DHT22;10089;47.876;8.346;2023-06-10T07:27:13;22.50;1.00
9699;DHT22;10089;47.876;8.346;2023-06-10T07:29:39;22.70;1.00
9699;DHT22;10089;47.876;8.346;2023-06-10T07:32:05;23.30;1.00
9699;DHT22;10089;47.876;8.346;2023-06-10T07:34:30;23.80;1.00
9699;DHT22;10089;47.876;8.346;2023-06-10T07:36:56;24.20;99.90
9699;DHT22;10089;47.876;8.346;2023-06-10T07:39:22;23.90;99.90
9699;DHT22;10089;47.876;8.346;2023-06-10T07:41:47;23.80;1.00
9699;DHT22;10089;47.876;8.346;2023-06-10T07:44:14;24.30;99.90
9699;DHT22;10089;47.876;8.346;2023-06-10T07:46:40;23.90;99.90
9699;DHT22;10089;47.876;8.346;2023-06-10T07:49:05;23.30;99.90
9699;DHT22;10089;47.876;8.346;2023-06-10T07:51:31;23.60;99.90
9699;DHT22;10089;47.876;8.346;2023-06-10T07:53:56;23.00;99.90
9699;DHT22;10089;47.876;8.346;2023-06-10T07:56:22;23.20;99.90
9699;DHT22;10089;47.876;8.346;2023-06-10T07:58:48;23.50;99.90
9699;DHT22;10089;47.876;8.346;2023-06-10T08:01:13;24.20;99.90
9699;DHT22;10089;47.876;8.346;2023-06-10T08:03:39;24.40;99.90
9699;DHT22;10089;47.876;8.346;2023-06-10T08:06:04;23.90;99.90
9699;DHT22;10089;47.876;8.346;2023-06-10T08:08:31;24.00;99.90
9699;DHT22;10089;47.876;8.346;2023-06-10T08:10:56;24.30;99.90
9699;DHT22;10089;47.876;8.346;2023-06-10T08:13:22;24.50;99.90
9699;DHT22;10089;47.876;8.346;2023-06-10T08:15:48;24.90;99.90
9699;DHT22;10089;47.876;8.346;2023-06-10T08:18:15;24.90;99.90
9699;DHT22;10089;47.876;8.346;2023-06-10T08:20:41;25.00;99.90
9699;DHT22;10089;47.876;8.346;2023-06-10T08:23:07;24.30;99.90
9699;DHT22;10089;47.876;8.346;2023-06-10T08:25:32;24.20;99.90
9699;DHT22;10089;47.876;8.346;2023-06-10T08:27:58;23.30;99.90
9699;DHT22;10089;47.876;8.346;2023-06-10T08:30:24;23.40;99.90
9699;DHT22;10089;47.876;8.346;2023-06-10T08:32:49;24.40;99.90
9699;DHT22;10089;47.876;8.346;2023-06-10T08:35:15;25.00;99.90
9699;DHT22;10089;47.876;8.346;2023-06-10T08:37:40;25.00;99.90
9699;DHT22;10089;47.876;8.346;2023-06-10T08:40:07;25.20;99.90
9699;DHT22;10089;47.876;8.346;2023-06-10T08:45:03;25.80;99.90
9699;DHT22;10089;47.876;8.346;2023-06-10T08:47:29;25.80;99.90
9699;DHT22;10089;47.876;8.346;2023-06-10T08:49:57;25.60;99.90
9699;DHT22;10089;47.876;8.346;2023-06-10T08:52:34;24.70;99.90
9699;DHT22;10089;47.876;8.346;2023-06-10T08:55:03;25.40;99.90
9699;DHT22;10089;47.876;8.346;2023-06-10T08:57:30;25.70;99.90
9699;DHT22;10089;47.876;8.346;2023-06-10T08:59:57;26.30;99.90
9699;DHT22;10089;47.876;8.346;2023-06-10T09:02:27;26.50;99.90
9699;DHT22;10089;47.876;8.346;2023-06-10T09:04:53;26.20;99.90
9699;DHT22;10089;47.876;8.346;2023-06-10T09:07:21;25.30;99.90
9699;DHT22;10089;47.876;8.346;2023-06-10T09:09:49;25.10;99.90
9699;DHT22;10089;47.876;8.346;2023-06-10T09:12:15;25.10;99.90
9699;DHT22;10089;47.876;8.346;2023-06-10T09:14:42;24.90;99.90
9699;DHT22;10089;47.876;8.346;2023-06-10T09:17:08;24.80;99.90
9699;DHT22;10089;47.876;8.346;2023-06-10T09:19:35;25.00;99.90
9699;DHT22;10089;47.876;8.346;2023-06-10T09:22:02;25.50;99.90
9699;DHT22;10089;47.876;8.346;2023-06-10T09:24:28;25.90;99.90
9699;DHT22;10089;47.876;8.346;2023-06-10T09:27:04;25.90;99.90
9699;DHT22;10089;47.876;8.346;2023-06-10T09:29:44;26.30;99.90
9699;DHT22;10089;47.876;8.346;2023-06-10T09:32:10;25.90;99.90
9699;DHT22;10089;47.876;8.346;2023-06-10T09:34:36;25.80;99.90
9699;DHT22;10089;47.876;8.346;2023-06-10T09:37:02;26.50;99.90
9699;DHT22;10089;47.876;8.346;2023-06-10T09:39:27;26.40;99.90
9699;DHT22;10089;47.876;8.346;2023-06-10T09:41:53;27.00;99.90
9699;DHT22;10089;47.876;8.346;2023-06-10T09:44:20;26.60;99.90
9699;DHT22;10089;47.876;8.346;2023-06-10T09:46:47;26.90;99.90
9699;DHT22;10089;47.876;8.346;2023-06-10T09:49:13;26.80;99.90
9699;DHT22;10089;47.876;8.346;2023-06-10T09:51:59;26.00;99.90
9699;DHT22;10089;47.876;8.346;2023-06-10T09:54:31;26.90;99.90
9699;DHT22;10089;47.876;8.346;2023-06-10T09:56:57;26.00;99.90
9699;DHT22;10089;47.876;8.346;2023-06-10T09:59:29;26.70;99.90
9699;DHT22;10089;47.876;8.346;2023-06-10T10:01:57;27.00;99.90
9699;DHT22;10089;47.876;8.346;2023-06-10T10:04:26;26.80;99.90
9699;DHT22;10089;47.876;8.346;2023-06-10T10:06:52;27.10;99.90
9699;DHT22;10089;47.876;8.346;2023-06-10T10:09:18;27.40;99.90
9699;DHT22;10089;47.876;8.346;2023-06-10T10:11:44;27.00;99.90
9699;DHT22;10089;47.876;8.346;2023-06-10T10:14:11;27.00;99.90
9699;DHT22;10089;47.876;8.346;2023-06-10T10:16:37;27.00;99.90
9699;DHT22;10089;47.876;8.346;2023-06-10T10:19:32;26.00;99.90
9699;DHT22;10089;47.876;8.346;2023-06-10T10:22:07;25.80;99.90
9699;DHT22;10089;47.876;8.346;2023-06-10T10:24:41;25.80;99.90
9699;DHT22;10089;47.876;8.346;2023-06-10T10:27:21;26.30;99.90
9699;DHT22;10089;47.876;8.346;2023-06-10T10:29:52;26.10;99.90
9699;DHT22;10089;47.876;8.346;2023-06-10T10:32:32;25.60;99.90
9699;DHT22;10089;47.876;8.346;2023-06-10T10:35:14;25.30;99.90
9699;DHT22;10089;47.876;8.346;2023-06-10T10:37:41;25.90;99.90
9699;DHT22;10089;47.876;8.346;2023-06-10T10:40:08;26.70;99.90
9699;DHT22;10089;47.876;8.346;2023-06-10T10:42:34;27.40;99.90
9699;DHT22;10089;47.876;8.346;2023-06-10T10:45:01;27.60;99.90
9699;DHT22;10089;47.876;8.346;2023-06-10T10:47:40;26.50;99.90
9699;DHT22;10089;47.876;8.346;2023-06-10T10:50:14;26.50;99.90
9699;DHT22;10089;47.876;8.346;2023-06-10T10:55:19;26.50;99.90
9699;DHT22;10089;47.876;8.346;2023-06-10T10:57:45;27.00;99.90
9699;DHT22;10089;47.876;8.346;2023-06-10T11:00:34;27.50;99.90
9699;DHT22;10089;47.876;8.346;2023-06-10T11:03:06;27.20;99.90
9699;DHT22;10089;47.876;8.346;2023-06-10T11:05:44;26.40;99.90
9699;DHT22;10089;47.876;8.346;2023-06-10T11:08:13;26.20;99.90
9699;DHT22;10089;47.876;8.346;2023-06-10T11:10:51;25.80;99.90
9699;DHT22;10089;47.876;8.346;2023-06-10T11:13:20;27.00;99.90
9699;DHT22;10089;47.876;8.346;2023-06-10T11:15:50;27.10;96.20
9699;DHT22;10089;47.876;8.346;2023-06-10T11:18:26;27.30;94.80
9699;DHT22;10089;47.876;8.346;2023-06-10T11:21:03;27.90;99.90
9699;DHT22;10089;47.876;8.346;2023-06-10T11:31:24;27.40;64.20
9699;DHT22;10089;47.876;8.346;2023-06-10T11:34:02;27.10;73.70
9699;DHT22;10089;47.876;8.346;2023-06-10T11:36:29;26.80;77.30
9699;DHT22;10089;47.876;8.346;2023-06-10T11:38:59;27.00;70.40
9699;DHT22;10089;47.876;8.346;2023-06-10T11:41:26;26.80;81.60
9699;DHT22;10089;47.876;8.346;2023-06-10T11:43:53;27.20;92.10
9699;DHT22;10089;47.876;8.346;2023-06-10T11:46:19;27.20;63.60
9699;DHT22;10089;47.876;8.346;2023-06-10T11:48:56;27.40;59.60
9699;DHT22;10089;47.876;8.346;2023-06-10T11:51:24;27.10;63.80
9699;DHT22;10089;47.876;8.346;2023-06-10T11:53:50;27.20;65.80
9699;DHT22;10089;47.876;8.346;2023-06-10T11:56:20;27.20;52.30
9699;DHT22;10089;47.876;8.346;2023-06-10T11:58:52;26.70;60.30
9699;DHT22;10089;47.876;8.346;2023-06-10T12:01:23;26.80;76.80
9699;DHT22;10089;47.876;8.346;2023-06-10T12:06:24;27.00;67.60
9699;DHT22;10089;47.876;8.346;2023-06-10T12:08:50;27.00;74.50
9699;DHT22;10089;47.876;8.346;2023-06-10T12:11:16;26.50;62.50
9699;DHT22;10089;47.876;8.346;2023-06-10T12:13:49;27.00;63.50
9699;DHT22;10089;47.876;8.346;2023-06-10T12:16:15;27.20;47.90
9699;DHT22;10089;47.876;8.346;2023-06-10T12:18:43;27.10;54.00
9699;DHT22;10089;47.876;8.346;2023-06-10T12:21:20;26.50;45.30
9699;DHT22;10089;47.876;8.346;2023-06-10T12:24:07;26.00;48.30
9699;DHT22;10089;47.876;8.346;2023-06-10T12:26:40;26.90;57.60
9699;DHT22;10089;47.876;8.346;2023-06-10T12:29:19;26.80;50.30
9699;DHT22;10089;47.876;8.346;2023-06-10T12:31:53;26.50;46.00
9699;DHT22;10089;47.876;8.346;2023-06-10T12:34:19;26.20;51.60
9699;DHT22;10089;47.876;8.346;2023-06-10T12:36:51;26.50;57.20
9699;DHT22;10089;47.876;8.346;2023-06-10T12:39:17;26.90;55.10
9699;DHT22;10089;47.876;8.346;2023-06-10T12:41:47;27.20;53.70
9699;DHT22;10089;47.876;8.346;2023-06-10T12:44:14;27.00;49.10
9699;DHT22;10089;47.876;8.346;2023-06-10T12:46:39;26.80;48.40
9699;DHT22;10089;47.876;8.346;2023-06-10T12:49:05;27.00;59.00
9699;DHT22;10089;47.876;8.346;2023-06-10T12:51:30;27.10;43.80
9699;DHT22;10089;47.876;8.346;2023-06-10T12:53:57;27.30;47.20
9699;DHT22;10089;47.876;8.346;2023-06-10T12:56:22;27.50;35.40
9699;DHT22;10089;47.876;8.346;2023-06-10T12:58:49;26.50;50.40
9699;DHT22;10089;47.876;8.346;2023-06-10T13:01:14;27.10;42.90
9699;DHT22;10089;47.876;8.346;2023-06-10T13:03:40;27.40;40.10
9699;DHT22;10089;47.876;8.346;2023-06-10T13:06:06;26.20;37.20
9699;DHT22;10089;47.876;8.346;2023-06-10T13:08:32;26.50;55.40
9699;DHT22;10089;47.876;8.346;2023-06-10T13:10:58;26.80;45.10
9699;DHT22;10089;47.876;8.346;2023-06-10T13:13:24;25.90;38.10
9699;DHT22;10089;47.876;8.346;2023-06-10T13:15:50;25.50;53.40
9699;DHT22;10089;47.876;8.346;2023-06-10T13:18:15;25.20;50.90
9699;DHT22;10089;47.876;8.346;2023-06-10T13:20:43;24.90;47.60
9699;DHT22;10089;47.876;8.346;2023-06-10T13:23:09;24.90;74.00
9699;DHT22;10089;47.876;8.346;2023-06-10T13:25:34;25.10;55.60
9699;DHT22;10089;47.876;8.346;2023-06-10T13:28:00;25.40;54.00
9699;DHT22;10089;47.876;8.346;2023-06-10T13:30:26;25.90;50.40
9699;DHT22;10089;47.876;8.346;2023-06-10T13:32:52;26.00;50.70
9699;DHT22;10089;47.876;8.346;2023-06-10T13:35:17;26.40;48.40
9699;DHT22;10089;47.876;8.346;2023-06-10T13:37:43;25.80;40.00
9699;DHT22;10089;47.876;8.346;2023-06-10T13:40:09;26.10;43.60
9699;DHT22;10089;47.876;8.346;2023-06-10T13:42:35;26.20;49.40
9699;DHT22;10089;47.876;8.346;2023-06-10T13:45:03;26.70;43.80
9699;DHT22;10089;47.876;8.346;2023-06-10T13:47:29;26.70;38.00
9699;DHT22;10089;47.876;8.346;2023-06-10T13:49:55;26.40;37.10
9699;DHT22;10089;47.876;8.346;2023-06-10T13:52:20;26.40;29.10
9699;DHT22;10089;47.876;8.346;2023-06-10T13:54:46;26.50;37.00
9699;DHT22;10089;47.876;8.346;2023-06-10T13:57:11;26.30;28.90
9699;DHT22;10089;47.876;8.346;2023-06-10T13:59:37;26.50;25.50
9699;DHT22;10089;47.876;8.346;2023-06-10T14:02:03;25.90;31.00
9699;DHT22;10089;47.876;8.346;2023-06-10T14:04:29;26.30;25.40
9699;DHT22;10089;47.876;8.346;2023-06-10T14:06:55;26.40;25.70
9699;DHT22;10089;47.876;8.346;2023-06-10T14:09:20;26.00;26.00
9699;DHT22;10089;47.876;8.346;2023-06-10T14:11:46;26.20;25.00
9699;DHT22;10089;47.876;8.346;2023-06-10T14:14:12;25.50;31.30
9699;DHT22;10089;47.876;8.346;2023-06-10T14:16:39;26.30;37.20
9699;DHT22;10089;47.876;8.346;2023-06-10T14:19:05;26.60;25.20
9699;DHT22;10089;47.876;8.346;2023-06-10T14:21:30;26.40;25.20
9699;DHT22;10089;47.876;8.346;2023-06-10T14:23:56;26.20;25.10
9699;DHT22;10089;47.876;8.346;2023-06-10T14:26:22;26.00;25.40
9699;DHT22;10089;47.876;8.346;2023-06-10T14:28:48;25.80;27.50
9699;DHT22;10089;47.876;8.346;2023-06-10T14:31:15;25.30;25.90
9699;DHT22;10089;47.876;8.346;2023-06-10T14:33:41;25.30;31.70
9699;DHT22;10089;47.876;8.346;2023-06-10T14:36:09;25.10;28.30
9699;DHT22;10089;47.876;8.346;2023-06-10T14:38:34;25.20;39.50
9699;DHT22;10089;47.876;8.346;2023-06-10T14:41:00;25.50;40.90
9699;DHT22;10089;47.876;8.346;2023-06-10T14:43:25;25.60;33.50
9699;DHT22;10089;47.876;8.346;2023-06-10T14:45:52;25.80;40.00
9699;DHT22;10089;47.876;8.346;2023-06-10T14:48:18;25.80;30.50
9699;DHT22;10089;47.876;8.346;2023-06-10T14:50:43;25.90;31.50
9699;DHT22;10089;47.876;8.346;2023-06-10T14:53:12;26.00;27.60
9699;DHT22;10089;47.876;8.346;2023-06-10T14:55:37;25.50;24.50
9699;DHT22;10089;47.876;8.346;2023-06-10T14:58:03;25.60;27.10
9699;DHT22;10089;47.876;8.346;2023-06-10T15:00:29;25.60;22.70
9699;DHT22;10089;47.876;8.346;2023-06-10T15:02:54;25.50;24.40
9699;DHT22;10089;47.876;8.346;2023-06-10T15:08:45;25.50;30.00
9699;DHT22;10089;47.876;8.346;2023-06-10T15:11:11;25.90;26.80
9699;DHT22;10089;47.876;8.346;2023-06-10T15:13:36;25.80;27.60
9699;DHT22;10089;47.876;8.346;2023-06-10T15:16:02;25.50;24.40
9699;DHT22;10089;47.876;8.346;2023-06-10T15:18:28;25.20;35.30
9699;DHT22;10089;47.876;8.346;2023-06-10T15:20:53;25.20;45.60
9699;DHT22;10089;47.876;8.346;2023-06-10T15:23:19;25.10;31.30
9699;DHT22;10089;47.876;8.346;2023-06-10T15:25:45;25.00;38.80
9699;DHT22;10089;47.876;8.346;2023-06-10T15:28:12;25.00;45.80
9699;DHT22;10089;47.876;8.346;2023-06-10T15:30:37;24.90;46.60
9699;DHT22;10089;47.876;8.346;2023-06-10T15:33:03;24.60;45.80
9699;DHT22;10089;47.876;8.346;2023-06-10T15:35:31;24.50;45.40
9699;DHT22;10089;47.876;8.346;2023-06-10T15:37:57;24.60;49.40
9699;DHT22;10089;47.876;8.346;2023-06-10T15:40:22;24.60;43.30
9699;DHT22;10089;47.876;8.346;2023-06-10T15:42:48;24.40;44.40
9699;DHT22;10089;47.876;8.346;2023-06-10T15:45:14;24.30;43.40
9699;DHT22;10089;47.876;8.346;2023-06-10T15:47:39;24.20;44.20
9699;DHT22;10089;47.876;8.346;2023-06-10T15:50:07;24.20;46.00
9699;DHT22;10089;47.876;8.346;2023-06-10T15:52:33;24.20;44.00
9699;DHT22;10089;47.876;8.346;2023-06-10T15:54:58;23.90;44.90
9699;DHT22;10089;47.876;8.346;2023-06-10T15:57:24;24.20;50.40
9699;DHT22;10089;47.876;8.346;2023-06-10T15:59:50;24.30;44.50
9699;DHT22;10089;47.876;8.346;2023-06-10T16:02:15;24.40;42.20
9699;DHT22;10089;47.876;8.346;2023-06-10T16:04:41;24.50;45.60
9699;DHT22;10089;47.876;8.346;2023-06-10T16:07:06;24.00;44.10
9699;DHT22;10089;47.876;8.346;2023-06-10T16:09:32;23.90;46.50
9699;DHT22;10089;47.876;8.346;2023-06-10T16:11:58;23.90;53.00
9699;DHT22;10089;47.876;8.346;2023-06-10T16:14:23;23.80;53.60